sensor_id;sensor_type;location;lat;lon;timestamp;P1;durP1;ratioP1;P2;durP2;ratioP2
2299;SDS011;1158;48.750;9.078;2023-09-08T00:00:21;12.93;;;8.27;;
2299;SDS011;1158;48.750;9.078;2023-09-08T00:02:48;13.77;;;9.80;;
2299;SDS011;1158;48.750;9.078;2023-09-08T00:05:15;10.57;;;8.80;;
2299;SDS011;1158;48.750;9.078;2023-09-08T00:07:42;12.63;;;9.53;;
2299;SDS011;1158;48.750;9.078;2023-09-08T00:10:10;13.80;;;9.73;;
2299;SDS011;1158;48.750;9.078;2023-09-08T00:12:37;11.67;;;9.03;;
2299;SDS011;1158;48.750;9.078;2023-09-08T00:15:05;11.70;;;9.37;;
2299;SDS011;1158;48.750;9.078;2023-09-08T00:17:34;14.20;;;9.47;;
2299;SDS011;1158;48.750;9.078;2023-09-08T00:20:01;11.30;;;9.57;;
2299;SDS011;1158;48.750;9.078;2023-09-08T00:22:33;13.13;;;9.20;;
2299;SDS011;1158;48.750;9.078;2023-09-08T00:25:00;12.63;;;10.07;;
2299;SDS011;1158;48.750;9.078;2023-09-08T00:27:29;13.20;;;9.90;;
2299;SDS011;1158;48.750;9.078;2023-09-08T00:29:56;13.20;;;10.10;;
2299;SDS011;1158;48.750;9.078;2023-09-08T00:32:23;12.90;;;8.43;;
2299;SDS011;1158;48.750;9.078;2023-09-08T00:34:51;11.30;;;8.17;;
2299;SDS011;1158;48.750;9.078;2023-09-08T00:37:18;11.57;;;9.20;;
2299;SDS011;1158;48.750;9.078;2023-09-08T00:39:45;14.27;;;10.00;;
2299;SDS011;1158;48.750;9.078;2023-09-08T00:42:12;12.57;;;9.37;;
2299;SDS011;1158;48.750;9.078;2023-09-08T00:44:39;14.23;;;9.73;;
2299;SDS011;1158;48.750;9.078;2023-09-08T00:47:07;12.80;;;9.43;;
2299;SDS011;1158;48.750;9.078;2023-09-08T00:49:34;11.80;;;8.90;;
2299;SDS011;1158;48.750;9.078;2023-09-08T00:52:02;11.77;;;8.27;;
2299;SDS011;1158;48.750;9.078;2023-09-08T00:54:29;13.10;;;9.63;;
2299;SDS011;1158;48.750;9.078;2023-09-08T00:56:56;11.90;;;8.73;;
2299;SDS011;1158;48.750;9.078;2023-09-08T00:59:24;12.77;;;9.70;;
2299;SDS011;1158;48.750;9.078;2023-09-08T01:01:51;12.07;;;10.00;;
2299;SDS011;1158;48.750;9.078;2023-09-08T01:04:20;16.03;;;9.57;;
2299;SDS011;1158;48.750;9.078;2023-09-08T01:06:47;15.67;;;9.43;;
2299;SDS011;1158;48.750;9.078;2023-09-08T01:09:16;11.77;;;9.37;;
2299;SDS011;1158;48.750;9.078;2023-09-08T01:11:43;12.70;;;9.97;;
2299;SDS011;1158;48.750;9.078;2023-09-08T01:14:11;13.10;;;9.00;;
2299;SDS011;1158;48.750;9.078;2023-09-08T01:16:39;12.83;;;9.27;;
2299;SDS011;1158;48.750;9.078;2023-09-08T01:19:06;13.70;;;9.30;;
2299;SDS011;1158;48.750;9.078;2023-09-08T01:21:52;12.87;;;9.30;;
2299;SDS011;1158;48.750;9.078;2023-09-08T01:24:33;12.80;;;9.43;;
2299;SDS011;1158;48.750;9.078;2023-09-08T01:27:06;11.17;;;8.70;;
2299;SDS011;1158;48.750;9.078;2023-09-08T01:29:33;14.37;;;9.27;;
2299;SDS011;1158;48.750;9.078;2023-09-08T01:32:00;10.70;;;9.20;;
2299;SDS011;1158;48.750;9.078;2023-09-08T01:34:29;10.93;;;8.83;;
2299;SDS011;1158;48.750;9.078;2023-09-08T01:36:56;12.60;;;8.97;;
2299;SDS011;1158;48.750;9.078;2023-09-08T01:39:25;13.53;;;9.50;;
2299;SDS011;1158;48.750;9.078;2023-09-08T01:41:52;16.17;;;8.43;;
2299;SDS011;1158;48.750;9.078;2023-09-08T01:44:20;13.33;;;9.00;;
2299;SDS011;1158;48.750;9.078;2023-09-08T01:46:47;13.20;;;10.43;;
2299;SDS011;1158;48.750;9.078;2023-09-08T01:49:17;12.53;;;9.00;;
2299;SDS011;1158;48.750;9.078;2023-09-08T01:51:44;11.20;;;8.90;;
2299;SDS011;1158;48.750;9.078;2023-09-08T01:54:11;12.53;;;9.73;;
2299;SDS011;1158;48.750;9.078;2023-09-08T01:56:39;11.67;;;8.73;;
2299;SDS011;1158;48.750;9.078;2023-09-08T01:59:06;10.03;;;7.73;;
2299;SDS011;1158;48.750;9.078;2023-09-08T02:01:34;15.83;;;8.90;;
2299;SDS011;1158;48.750;9.078;2023-09-08T02:04:01;18.23;;;8.60;;
2299;SDS011;1158;48.750;9.078;2023-09-08T02:06:29;10.93;;;8.77;;
2299;SDS011;1158;48.750;9.078;2023-09-08T02:08:56;16.60;;;9.53;;
2299;SDS011;1158;48.750;9.078;2023-09-08T02:11:23;11.87;;;9.07;;
2299;SDS011;1158;48.750;9.078;2023-09-08T02:13:50;12.40;;;9.20;;
2299;SDS011;1158;48.750;9.078;2023-09-08T02:16:17;11.03;;;8.13;;
2299;SDS011;1158;48.750;9.078;2023-09-08T02:18:45;15.47;;;9.43;;
2299;SDS011;1158;48.750;9.078;2023-09-08T02:21:12;12.17;;;9.93;;
2299;SDS011;1158;48.750;9.078;2023-09-08T02:23:39;11.47;;;9.07;;
2299;SDS011;1158;48.750;9.078;2023-09-08T02:26:07;13.27;;;10.17;;
2299;SDS011;1158;48.750;9.078;2023-09-08T02:28:34;11.60;;;9.17;;
2299;SDS011;1158;48.750;9.078;2023-09-08T02:31:01;11.03;;;8.93;;
2299;SDS011;1158;48.750;9.078;2023-09-08T02:33:28;11.20;;;8.90;;
2299;SDS011;1158;48.750;9.078;2023-09-08T02:35:57;11.40;;;8.97;;
2299;SDS011;1158;48.750;9.078;2023-09-08T02:38:27;10.97;;;8.90;;
2299;SDS011;1158;48.750;9.078;2023-09-08T02:40:55;9.30;;;7.00;;
2299;SDS011;1158;48.750;9.078;2023-09-08T02:43:22;11.77;;;9.30;;
2299;SDS011;1158;48.750;9.078;2023-09-08T02:45:49;9.97;;;7.80;;
2299;SDS011;1158;48.750;9.078;2023-09-08T02:48:16;14.93;;;8.90;;
2299;SDS011;1158;48.750;9.078;2023-09-08T02:50:43;11.80;;;8.77;;
2299;SDS011;1158;48.750;9.078;2023-09-08T02:53:12;12.47;;;9.63;;
2299;SDS011;1158;48.750;9.078;2023-09-08T02:55:39;13.10;;;9.30;;
2299;SDS011;1158;48.750;9.078;2023-09-08T02:58:06;13.50;;;8.90;;
2299;SDS011;1158;48.750;9.078;2023-09-08T03:00:33;12.37;;;9.20;;
2299;SDS011;1158;48.750;9.078;2023-09-08T03:03:00;15.53;;;9.20;;
2299;SDS011;1158;48.750;9.078;2023-09-08T03:05:27;11.50;;;9.27;;
2299;SDS011;1158;48.750;9.078;2023-09-08T03:07:54;14.13;;;9.20;;
2299;SDS011;1158;48.750;9.078;2023-09-08T03:10:23;11.57;;;8.43;;
2299;SDS011;1158;48.750;9.078;2023-09-08T03:12:50;14.13;;;8.53;;
2299;SDS011;1158;48.750;9.078;2023-09-08T03:15:17;13.10;;;10.37;;
2299;SDS011;1158;48.750;9.078;2023-09-08T03:17:44;13.43;;;9.73;;
2299;SDS011;1158;48.750;9.078;2023-09-08T03:20:11;11.83;;;8.60;;
2299;SDS011;1158;48.750;9.078;2023-09-08T03:22:39;14.37;;;8.37;;
2299;SDS011;1158;48.750;9.078;2023-09-08T03:25:06;12.43;;;10.00;;
2299;SDS011;1158;48.750;9.078;2023-09-08T03:27:35;12.50;;;9.60;;
2299;SDS011;1158;48.750;9.078;2023-09-08T03:30:02;12.50;;;9.10;;
2299;SDS011;1158;48.750;9.078;2023-09-08T03:32:29;11.97;;;9.17;;
2299;SDS011;1158;48.750;9.078;2023-09-08T03:34:56;11.27;;;8.90;;
2299;SDS011;1158;48.750;9.078;2023-09-08T03:37:23;13.53;;;9.57;;
2299;SDS011;1158;48.750;9.078;2023-09-08T03:39:51;14.13;;;8.90;;
2299;SDS011;1158;48.750;9.078;2023-09-08T03:42:18;11.17;;;8.27;;
2299;SDS011;1158;48.750;9.078;2023-09-08T03:44:46;14.73;;;10.33;;
2299;SDS011;1158;48.750;9.078;2023-09-08T03:47:13;17.10;;;11.27;;
2299;SDS011;1158;48.750;9.078;2023-09-08T03:49:41;12.13;;;8.63;;
2299;SDS011;1158;48.750;9.078;2023-09-08T03:52:08;12.60;;;9.57;;
2299;SDS011;1158;48.750;9.078;2023-09-08T03:54:35;11.13;;;9.03;;
2299;SDS011;1158;48.750;9.078;2023-09-08T03:57:02;13.10;;;9.43;;
2299;SDS011;1158;48.750;9.078;2023-09-08T03:59:29;14.80;;;10.57;;
2299;SDS011;1158;48.750;9.078;2023-09-08T04:01:57;13.63;;;9.90;;
2299;SDS011;1158;48.750;9.078;2023-09-08T04:04:26;13.77;;;9.90;;
2299;SDS011;1158;48.750;9.078;2023-09-08T04:06:53;11.97;;;8.37;;
2299;SDS011;1158;48.750;9.078;2023-09-08T04:09:20;15.10;;;9.47;;
2299;SDS011;1158;48.750;9.078;2023-09-08T04:11:47;11.87;;;9.20;;
2299;SDS011;1158;48.750;9.078;2023-09-08T04:14:14;12.47;;;8.67;;
2299;SDS011;1158;48.750;9.078;2023-09-08T04:16:41;11.53;;;8.90;;
2299;SDS011;1158;48.750;9.078;2023-09-08T04:19:09;11.83;;;8.73;;
2299;SDS011;1158;48.750;9.078;2023-09-08T04:21:36;13.83;;;9.80;;
2299;SDS011;1158;48.750;9.078;2023-09-08T04:24:04;11.27;;;9.23;;
2299;SDS011;1158;48.750;9.078;2023-09-08T04:26:32;13.50;;;9.60;;
2299;SDS011;1158;48.750;9.078;2023-09-08T04:28:59;11.20;;;8.70;;
2299;SDS011;1158;48.750;9.078;2023-09-08T04:31:26;12.90;;;9.50;;
2299;SDS011;1158;48.750;9.078;2023-09-08T04:33:53;13.50;;;9.43;;
2299;SDS011;1158;48.750;9.078;2023-09-08T04:36:22;14.27;;;9.63;;
2299;SDS011;1158;48.750;9.078;2023-09-08T04:38:49;13.77;;;9.53;;
2299;SDS011;1158;48.750;9.078;2023-09-08T04:41:16;14.10;;;8.67;;
2299;SDS011;1158;48.750;9.078;2023-09-08T04:43:43;13.63;;;11.13;;
2299;SDS011;1158;48.750;9.078;2023-09-08T04:46:10;15.40;;;11.40;;
2299;SDS011;1158;48.750;9.078;2023-09-08T04:48:37;15.07;;;10.07;;
2299;SDS011;1158;48.750;9.078;2023-09-08T04:51:04;14.77;;;9.00;;
2299;SDS011;1158;48.750;9.078;2023-09-08T04:53:33;11.67;;;9.90;;
2299;SDS011;1158;48.750;9.078;2023-09-08T04:56:01;12.03;;;9.17;;
2299;SDS011;1158;48.750;9.078;2023-09-08T04:58:28;14.37;;;9.47;;
2299;SDS011;1158;48.750;9.078;2023-09-08T05:00:56;11.50;;;8.87;;
2299;SDS011;1158;48.750;9.078;2023-09-08T05:03:23;12.67;;;9.53;;
2299;SDS011;1158;48.750;9.078;2023-09-08T05:05:51;11.90;;;9.20;;
2299;SDS011;1158;48.750;9.078;2023-09-08T05:08:18;14.43;;;8.93;;
2299;SDS011;1158;48.750;9.078;2023-09-08T05:10:47;12.47;;;9.00;;
2299;SDS011;1158;48.750;9.078;2023-09-08T05:13:16;12.43;;;9.37;;
2299;SDS011;1158;48.750;9.078;2023-09-08T05:15:43;15.00;;;9.80;;
2299;SDS011;1158;48.750;9.078;2023-09-08T05:18:13;15.77;;;9.80;;
2299;SDS011;1158;48.750;9.078;2023-09-08T05:20:40;16.80;;;11.50;;
2299;SDS011;1158;48.750;9.078;2023-09-08T05:23:06;16.40;;;10.37;;
2299;SDS011;1158;48.750;9.078;2023-09-08T05:25:33;11.60;;;9.00;;
2299;SDS011;1158;48.750;9.078;2023-09-08T05:28:02;12.20;;;9.30;;
2299;SDS011;1158;48.750;9.078;2023-09-08T05:30:29;15.00;;;10.23;;
2299;SDS011;1158;48.750;9.078;2023-09-08T05:32:56;12.10;;;10.40;;
2299;SDS011;1158;48.750;9.078;2023-09-08T05:35:24;16.30;;;9.67;;
2299;SDS011;1158;48.750;9.078;2023-09-08T05:37:51;11.60;;;8.73;;
2299;SDS011;1158;48.750;9.078;2023-09-08T05:40:18;13.03;;;9.50;;
2299;SDS011;1158;48.750;9.078;2023-09-08T05:42:48;11.97;;;8.70;;
2299;SDS011;1158;48.750;9.078;2023-09-08T05:45:17;12.30;;;8.93;;
2299;SDS011;1158;48.750;9.078;2023-09-08T05:47:44;11.27;;;8.67;;
2299;SDS011;1158;48.750;9.078;2023-09-08T05:50:11;12.27;;;9.50;;
2299;SDS011;1158;48.750;9.078;2023-09-08T05:52:38;11.60;;;10.30;;
2299;SDS011;1158;48.750;9.078;2023-09-08T05:55:06;11.30;;;9.30;;
2299;SDS011;1158;48.750;9.078;2023-09-08T05:57:33;9.73;;;7.07;;
2299;SDS011;1158;48.750;9.078;2023-09-08T06:00:00;8.40;;;7.13;;
2299;SDS011;1158;48.750;9.078;2023-09-08T06:02:29;6.70;;;5.63;;
2299;SDS011;1158;48.750;9.078;2023-09-08T06:04:56;8.30;;;6.23;;
2299;SDS011;1158;48.750;9.078;2023-09-08T06:07:23;6.47;;;5.77;;
2299;SDS011;1158;48.750;9.078;2023-09-08T06:09:50;6.30;;;5.30;;
2299;SDS011;1158;48.750;9.078;2023-09-08T06:12:17;6.33;;;5.20;;
2299;SDS011;1158;48.750;9.078;2023-09-08T06:14:44;7.77;;;4.80;;
2299;SDS011;1158;48.750;9.078;2023-09-08T06:17:11;8.17;;;5.37;;
2299;SDS011;1158;48.750;9.078;2023-09-08T06:19:40;7.50;;;5.40;;
2299;SDS011;1158;48.750;9.078;2023-09-08T06:22:07;5.73;;;4.93;;
2299;SDS011;1158;48.750;9.078;2023-09-08T06:24:34;6.20;;;5.60;;
2299;SDS011;1158;48.750;9.078;2023-09-08T06:27:01;5.97;;;4.80;;
2299;SDS011;1158;48.750;9.078;2023-09-08T06:29:28;5.50;;;4.30;;
2299;SDS011;1158;48.750;9.078;2023-09-08T06:31:55;5.13;;;4.63;;
2299;SDS011;1158;48.750;9.078;2023-09-08T06:34:22;5.23;;;4.20;;
2299;SDS011;1158;48.750;9.078;2023-09-08T06:36:51;5.07;;;4.37;;
2299;SDS011;1158;48.750;9.078;2023-09-08T06:39:18;6.53;;;5.20;;
2299;SDS011;1158;48.750;9.078;2023-09-08T06:41:45;5.80;;;5.20;;
2299;SDS011;1158;48.750;9.078;2023-09-08T06:44:12;5.33;;;4.40;;
2299;SDS011;1158;48.750;9.078;2023-09-08T06:46:39;8.90;;;5.50;;
2299;SDS011;1158;48.750;9.078;2023-09-08T06:49:06;5.50;;;4.93;;
2299;SDS011;1158;48.750;9.078;2023-09-08T06:51:33;7.37;;;5.87;;
2299;SDS011;1158;48.750;9.078;2023-09-08T06:54:03;5.10;;;3.97;;
2299;SDS011;1158;48.750;9.078;2023-09-08T06:56:30;6.70;;;4.57;;
2299;SDS011;1158;48.750;9.078;2023-09-08T06:58:57;9.23;;;5.30;;
2299;SDS011;1158;48.750;9.078;2023-09-08T07:01:25;5.13;;;4.03;;
2299;SDS011;1158;48.750;9.078;2023-09-08T07:03:52;5.70;;;4.60;;
2299;SDS011;1158;48.750;9.078;2023-09-08T07:06:19;5.50;;;5.00;;
2299;SDS011;1158;48.750;9.078;2023-09-08T07:08:47;6.43;;;4.47;;
2299;SDS011;1158;48.750;9.078;2023-09-08T07:11:16;6.40;;;4.53;;
2299;SDS011;1158;48.750;9.078;2023-09-08T07:13:43;10.73;;;5.23;;
2299;SDS011;1158;48.750;9.078;2023-09-08T07:16:10;4.93;;;3.93;;
2299;SDS011;1158;48.750;9.078;2023-09-08T07:18:37;5.60;;;4.53;;
2299;SDS011;1158;48.750;9.078;2023-09-08T07:21:14;7.23;;;4.90;;
2299;SDS011;1158;48.750;9.078;2023-09-08T07:23:41;6.13;;;4.50;;
2299;SDS011;1158;48.750;9.078;2023-09-08T07:26:08;5.93;;;5.23;;
2299;SDS011;1158;48.750;9.078;2023-09-08T07:28:36;7.07;;;5.43;;
2299;SDS011;1158;48.750;9.078;2023-09-08T07:31:04;5.00;;;4.40;;
2299;SDS011;1158;48.750;9.078;2023-09-08T07:33:34;5.60;;;4.80;;
2299;SDS011;1158;48.750;9.078;2023-09-08T07:36:04;5.73;;;5.13;;
2299;SDS011;1158;48.750;9.078;2023-09-08T07:38:32;5.80;;;5.20;;
2299;SDS011;1158;48.750;9.078;2023-09-08T07:40:59;7.80;;;5.63;;
2299;SDS011;1158;48.750;9.078;2023-09-08T07:43:26;8.67;;;5.80;;
2299;SDS011;1158;48.750;9.078;2023-09-08T07:45:54;5.73;;;5.23;;
2299;SDS011;1158;48.750;9.078;2023-09-08T07:48:21;7.10;;;5.97;;
2299;SDS011;1158;48.750;9.078;2023-09-08T07:50:48;6.33;;;5.60;;
2299;SDS011;1158;48.750;9.078;2023-09-08T07:53:15;7.70;;;5.57;;
2299;SDS011;1158;48.750;9.078;2023-09-08T07:55:42;6.13;;;5.53;;
2299;SDS011;1158;48.750;9.078;2023-09-08T07:58:10;6.70;;;5.17;;
2299;SDS011;1158;48.750;9.078;2023-09-08T08:00:37;7.43;;;5.47;;
2299;SDS011;1158;48.750;9.078;2023-09-08T08:03:05;6.33;;;5.73;;
2299;SDS011;1158;48.750;9.078;2023-09-08T08:05:33;6.73;;;5.60;;
2299;SDS011;1158;48.750;9.078;2023-09-08T08:08:00;6.90;;;6.20;;
2299;SDS011;1158;48.750;9.078;2023-09-08T08:10:27;5.50;;;5.00;;
2299;SDS011;1158;48.750;9.078;2023-09-08T08:12:55;5.67;;;5.07;;
2299;SDS011;1158;48.750;9.078;2023-09-08T08:15:22;6.57;;;5.40;;
2299;SDS011;1158;48.750;9.078;2023-09-08T08:17:49;7.53;;;5.80;;
2299;SDS011;1158;48.750;9.078;2023-09-08T08:20:18;6.80;;;5.80;;
2299;SDS011;1158;48.750;9.078;2023-09-08T08:22:45;6.77;;;5.57;;
2299;SDS011;1158;48.750;9.078;2023-09-08T08:25:12;5.60;;;4.80;;
2299;SDS011;1158;48.750;9.078;2023-09-08T08:27:39;6.57;;;5.20;;
2299;SDS011;1158;48.750;9.078;2023-09-08T08:30:06;5.90;;;5.30;;
2299;SDS011;1158;48.750;9.078;2023-09-08T08:32:36;5.70;;;4.70;;
2299;SDS011;1158;48.750;9.078;2023-09-08T08:35:03;6.00;;;4.43;;
2299;SDS011;1158;48.750;9.078;2023-09-08T08:37:32;6.70;;;5.10;;
2299;SDS011;1158;48.750;9.078;2023-09-08T08:39:59;9.00;;;6.20;;
2299;SDS011;1158;48.750;9.078;2023-09-08T08:42:30;7.20;;;5.43;;
2299;SDS011;1158;48.750;9.078;2023-09-08T08:44:57;7.10;;;5.60;;
2299;SDS011;1158;48.750;9.078;2023-09-08T08:47:25;4.90;;;4.50;;
2299;SDS011;1158;48.750;9.078;2023-09-08T08:49:52;6.03;;;5.37;;
2299;SDS011;1158;48.750;9.078;2023-09-08T08:52:20;9.90;;;6.00;;
2299;SDS011;1158;48.750;9.078;2023-09-08T08:54:48;6.03;;;5.43;;
2299;SDS011;1158;48.750;9.078;2023-09-08T08:57:15;6.63;;;5.13;;
2299;SDS011;1158;48.750;9.078;2023-09-08T08:59:43;7.30;;;6.07;;
2299;SDS011;1158;48.750;9.078;2023-09-08T09:02:11;6.87;;;5.80;;
2299;SDS011;1158;48.750;9.078;2023-09-08T09:04:39;6.30;;;5.47;;
2299;SDS011;1158;48.750;9.078;2023-09-08T09:07:07;6.10;;;5.27;;
2299;SDS011;1158;48.750;9.078;2023-09-08T09:09:34;9.93;;;6.07;;
2299;SDS011;1158;48.750;9.078;2023-09-08T09:12:03;7.13;;;6.43;;
2299;SDS011;1158;48.750;9.078;2023-09-08T09:14:31;8.27;;;6.10;;
2299;SDS011;1158;48.750;9.078;2023-09-08T09:17:00;7.30;;;5.80;;
2299;SDS011;1158;48.750;9.078;2023-09-08T09:19:29;6.90;;;6.13;;
2299;SDS011;1158;48.750;9.078;2023-09-08T09:21:57;6.93;;;5.93;;
2299;SDS011;1158;48.750;9.078;2023-09-08T09:24:31;6.47;;;5.80;;
2299;SDS011;1158;48.750;9.078;2023-09-08T09:26:59;6.00;;;5.40;;
2299;SDS011;1158;48.750;9.078;2023-09-08T09:29:27;6.23;;;5.63;;
2299;SDS011;1158;48.750;9.078;2023-09-08T09:31:55;8.03;;;5.73;;
2299;SDS011;1158;48.750;9.078;2023-09-08T09:34:23;6.50;;;5.90;;
2299;SDS011;1158;48.750;9.078;2023-09-08T09:36:51;6.67;;;5.60;;
2299;SDS011;1158;48.750;9.078;2023-09-08T09:39:19;5.67;;;5.17;;
2299;SDS011;1158;48.750;9.078;2023-09-08T09:41:47;8.50;;;5.53;;
2299;SDS011;1158;48.750;9.078;2023-09-08T09:44:14;7.13;;;5.73;;
2299;SDS011;1158;48.750;9.078;2023-09-08T09:46:45;6.00;;;5.43;;
2299;SDS011;1158;48.750;9.078;2023-09-08T09:49:13;8.17;;;6.07;;
2299;SDS011;1158;48.750;9.078;2023-09-08T09:51:42;7.03;;;6.40;;
2299;SDS011;1158;48.750;9.078;2023-09-08T09:54:10;7.70;;;6.20;;
2299;SDS011;1158;48.750;9.078;2023-09-08T09:56:38;10.17;;;6.00;;
2299;SDS011;1158;48.750;9.078;2023-09-08T09:59:07;6.63;;;6.00;;
2299;SDS011;1158;48.750;9.078;2023-09-08T10:01:35;7.40;;;6.70;;
2299;SDS011;1158;48.750;9.078;2023-09-08T10:04:04;7.50;;;6.80;;
2299;SDS011;1158;48.750;9.078;2023-09-08T10:06:33;11.10;;;6.10;;
2299;SDS011;1158;48.750;9.078;2023-09-08T10:09:00;8.73;;;5.87;;
2299;SDS011;1158;48.750;9.078;2023-09-08T10:11:29;7.33;;;6.50;;
2299;SDS011;1158;48.750;9.078;2023-09-08T10:14:01;10.80;;;6.60;;
2299;SDS011;1158;48.750;9.078;2023-09-08T10:16:29;8.00;;;6.30;;
2299;SDS011;1158;48.750;9.078;2023-09-08T10:19:01;7.10;;;6.10;;
2299;SDS011;1158;48.750;9.078;2023-09-08T10:21:31;6.90;;;6.20;;
2299;SDS011;1158;48.750;9.078;2023-09-08T10:24:02;7.20;;;6.50;;
2299;SDS011;1158;48.750;9.078;2023-09-08T10:26:33;7.57;;;6.50;;
2299;SDS011;1158;48.750;9.078;2023-09-08T10:29:01;8.17;;;6.03;;
2299;SDS011;1158;48.750;9.078;2023-09-08T10:31:28;10.03;;;6.67;;
2299;SDS011;1158;48.750;9.078;2023-09-08T10:33:56;6.97;;;6.30;;
2299;SDS011;1158;48.750;9.078;2023-09-08T10:36:24;9.93;;;6.90;;
2299;SDS011;1158;48.750;9.078;2023-09-08T10:38:53;7.97;;;6.30;;
2299;SDS011;1158;48.750;9.078;2023-09-08T10:41:28;6.43;;;5.73;;
2299;SDS011;1158;48.750;9.078;2023-09-08T10:43:57;9.70;;;6.70;;
2299;SDS011;1158;48.750;9.078;2023-09-08T10:46:26;7.57;;;6.87;;
2299;SDS011;1158;48.750;9.078;2023-09-08T10:48:53;9.33;;;8.00;;
2299;SDS011;1158;48.750;9.078;2023-09-08T10:51:21;11.33;;;7.07;;
2299;SDS011;1158;48.750;9.078;2023-09-08T10:53:49;9.77;;;6.70;;
2299;SDS011;1158;48.750;9.078;2023-09-08T10:56:17;6.53;;;5.77;;
2299;SDS011;1158;48.750;9.078;2023-09-08T10:58:48;7.90;;;6.57;;
2299;SDS011;1158;48.750;9.078;2023-09-08T11:01:16;7.83;;;6.20;;
2299;SDS011;1158;48.750;9.078;2023-09-08T11:03:44;7.73;;;6.47;;
2299;SDS011;1158;48.750;9.078;2023-09-08T11:06:15;8.73;;;6.63;;
2299;SDS011;1158;48.750;9.078;2023-09-08T11:08:42;11.17;;;6.97;;
2299;SDS011;1158;48.750;9.078;2023-09-08T11:11:10;9.20;;;6.60;;
2299;SDS011;1158;48.750;9.078;2023-09-08T11:13:38;6.57;;;5.87;;
2299;SDS011;1158;48.750;9.078;2023-09-08T11:16:06;7.50;;;6.57;;
2299;SDS011;1158;48.750;9.078;2023-09-08T11:18:33;8.90;;;7.07;;
2299;SDS011;1158;48.750;9.078;2023-09-08T11:21:01;8.93;;;7.03;;
2299;SDS011;1158;48.750;9.078;2023-09-08T11:23:28;11.97;;;8.77;;
2299;SDS011;1158;48.750;9.078;2023-09-08T11:25:57;6.80;;;6.10;;
2299;SDS011;1158;48.750;9.078;2023-09-08T11:28:24;8.17;;;6.70;;
2299;SDS011;1158;48.750;9.078;2023-09-08T11:30:54;8.60;;;7.00;;
2299;SDS011;1158;48.750;9.078;2023-09-08T11:33:22;8.90;;;6.77;;
2299;SDS011;1158;48.750;9.078;2023-09-08T11:35:50;6.50;;;5.80;;
2299;SDS011;1158;48.750;9.078;2023-09-08T11:38:18;7.13;;;6.47;;
2299;SDS011;1158;48.750;9.078;2023-09-08T11:40:46;7.93;;;7.00;;
2299;SDS011;1158;48.750;9.078;2023-09-08T11:43:13;8.40;;;7.17;;
2299;SDS011;1158;48.750;9.078;2023-09-08T11:45:40;10.13;;;7.90;;
2299;SDS011;1158;48.750;9.078;2023-09-08T11:48:11;8.20;;;6.50;;
2299;SDS011;1158;48.750;9.078;2023-09-08T11:50:38;8.63;;;7.00;;
2299;SDS011;1158;48.750;9.078;2023-09-08T11:53:07;8.23;;;7.43;;
2299;SDS011;1158;48.750;9.078;2023-09-08T11:55:34;9.87;;;7.10;;
2299;SDS011;1158;48.750;9.078;2023-09-08T11:58:02;7.30;;;6.30;;
2299;SDS011;1158;48.750;9.078;2023-09-08T12:00:30;6.53;;;5.90;;
2299;SDS011;1158;48.750;9.078;2023-09-08T12:03:08;9.97;;;8.10;;
2299;SDS011;1158;48.750;9.078;2023-09-08T12:05:37;8.27;;;7.40;;
2299;SDS011;1158;48.750;9.078;2023-09-08T12:08:04;9.73;;;6.53;;
2299;SDS011;1158;48.750;9.078;2023-09-08T12:10:37;7.40;;;6.70;;
2299;SDS011;1158;48.750;9.078;2023-09-08T12:13:04;8.87;;;7.27;;
2299;SDS011;1158;48.750;9.078;2023-09-08T12:15:32;8.50;;;7.60;;
2299;SDS011;1158;48.750;9.078;2023-09-08T12:17:59;17.30;;;6.90;;
2299;SDS011;1158;48.750;9.078;2023-09-08T12:20:27;7.90;;;7.10;;
2299;SDS011;1158;48.750;9.078;2023-09-08T12:22:57;7.77;;;7.03;;
2299;SDS011;1158;48.750;9.078;2023-09-08T12:25:24;10.40;;;6.47;;
2299;SDS011;1158;48.750;9.078;2023-09-08T12:27:53;7.90;;;6.87;;
2299;SDS011;1158;48.750;9.078;2023-09-08T12:30:21;7.43;;;6.60;;
2299;SDS011;1158;48.750;9.078;2023-09-08T12:32:55;7.70;;;6.90;;
2299;SDS011;1158;48.750;9.078;2023-09-08T12:35:22;8.70;;;7.80;;
2299;SDS011;1158;48.750;9.078;2023-09-08T12:37:53;7.10;;;6.40;;
2299;SDS011;1158;48.750;9.078;2023-09-08T12:40:22;7.60;;;6.90;;
2299;SDS011;1158;48.750;9.078;2023-09-08T12:42:49;9.03;;;7.17;;
2299;SDS011;1158;48.750;9.078;2023-09-08T12:45:16;11.63;;;8.03;;
2299;SDS011;1158;48.750;9.078;2023-09-08T12:47:44;10.07;;;6.40;;
2299;SDS011;1158;48.750;9.078;2023-09-08T12:50:11;7.73;;;6.93;;
2299;SDS011;1158;48.750;9.078;2023-09-08T12:52:38;8.50;;;7.03;;
2299;SDS011;1158;48.750;9.078;2023-09-08T12:55:06;8.80;;;6.80;;
2299;SDS011;1158;48.750;9.078;2023-09-08T12:57:34;7.53;;;6.70;;
2299;SDS011;1158;48.750;9.078;2023-09-08T13:00:02;8.03;;;7.27;;
2299;SDS011;1158;48.750;9.078;2023-09-08T13:02:29;8.53;;;6.60;;
2299;SDS011;1158;48.750;9.078;2023-09-08T13:04:56;7.90;;;7.10;;
2299;SDS011;1158;48.750;9.078;2023-09-08T13:07:24;12.17;;;7.17;;
2299;SDS011;1158;48.750;9.078;2023-09-08T13:09:51;7.93;;;7.13;;
2299;SDS011;1158;48.750;9.078;2023-09-08T13:12:19;8.37;;;7.27;;
2299;SDS011;1158;48.750;9.078;2023-09-08T13:14:47;7.60;;;6.87;;
2299;SDS011;1158;48.750;9.078;2023-09-08T13:17:14;9.47;;;6.23;;
2299;SDS011;1158;48.750;9.078;2023-09-08T13:19:41;6.97;;;6.27;;
2299;SDS011;1158;48.750;9.078;2023-09-08T13:22:08;7.37;;;6.67;;
2299;SDS011;1158;48.750;9.078;2023-09-08T13:24:36;7.83;;;7.10;;
2299;SDS011;1158;48.750;9.078;2023-09-08T13:27:04;8.17;;;7.33;;
2299;SDS011;1158;48.750;9.078;2023-09-08T13:29:31;6.63;;;6.03;;
2299;SDS011;1158;48.750;9.078;2023-09-08T13:32:00;8.00;;;6.10;;
2299;SDS011;1158;48.750;9.078;2023-09-08T13:34:27;9.23;;;5.63;;
2299;SDS011;1158;48.750;9.078;2023-09-08T13:37:00;6.43;;;5.83;;
2299;SDS011;1158;48.750;9.078;2023-09-08T13:39:28;7.80;;;7.10;;
2299;SDS011;1158;48.750;9.078;2023-09-08T13:41:55;7.20;;;6.50;;
2299;SDS011;1158;48.750;9.078;2023-09-08T13:44:23;8.47;;;7.40;;
2299;SDS011;1158;48.750;9.078;2023-09-08T13:46:51;7.80;;;7.00;;
2299;SDS011;1158;48.750;9.078;2023-09-08T13:49:21;6.53;;;5.80;;
2299;SDS011;1158;48.750;9.078;2023-09-08T13:51:48;7.70;;;7.00;;
2299;SDS011;1158;48.750;9.078;2023-09-08T13:54:17;6.73;;;6.07;;
2299;SDS011;1158;48.750;9.078;2023-09-08T13:56:44;6.87;;;6.17;;
2299;SDS011;1158;48.750;9.078;2023-09-08T13:59:11;7.77;;;6.17;;
2299;SDS011;1158;48.750;9.078;2023-09-08T14:01:38;6.50;;;5.90;;
2299;SDS011;1158;48.750;9.078;2023-09-08T14:04:05;7.10;;;6.20;;
2299;SDS011;1158;48.750;9.078;2023-09-08T14:06:33;7.37;;;6.20;;
2299;SDS011;1158;48.750;9.078;2023-09-08T14:09:00;6.57;;;5.97;;
2299;SDS011;1158;48.750;9.078;2023-09-08T14:11:28;7.20;;;6.50;;
2299;SDS011;1158;48.750;9.078;2023-09-08T14:13:55;7.87;;;5.70;;
2299;SDS011;1158;48.750;9.078;2023-09-08T14:16:22;6.23;;;5.63;;
2299;SDS011;1158;48.750;9.078;2023-09-08T14:18:49;7.33;;;6.03;;
2299;SDS011;1158;48.750;9.078;2023-09-08T14:21:16;6.20;;;5.60;;
2299;SDS011;1158;48.750;9.078;2023-09-08T14:23:45;7.03;;;5.57;;
2299;SDS011;1158;48.750;9.078;2023-09-08T14:26:12;9.23;;;5.87;;
2299;SDS011;1158;48.750;9.078;2023-09-08T14:28:39;6.27;;;5.70;;
2299;SDS011;1158;48.750;9.078;2023-09-08T14:31:07;6.30;;;5.37;;
2299;SDS011;1158;48.750;9.078;2023-09-08T14:33:34;6.90;;;6.23;;
2299;SDS011;1158;48.750;9.078;2023-09-08T14:36:01;5.90;;;5.40;;
2299;SDS011;1158;48.750;9.078;2023-09-08T14:38:28;7.90;;;6.00;;
2299;SDS011;1158;48.750;9.078;2023-09-08T14:40:58;7.63;;;6.23;;
2299;SDS011;1158;48.750;9.078;2023-09-08T14:43:25;5.60;;;5.00;;
2299;SDS011;1158;48.750;9.078;2023-09-08T14:45:53;6.67;;;5.40;;
2299;SDS011;1158;48.750;9.078;2023-09-08T14:48:22;8.83;;;5.63;;
2299;SDS011;1158;48.750;9.078;2023-09-08T14:50:49;7.10;;;5.83;;
2299;SDS011;1158;48.750;9.078;2023-09-08T14:53:16;6.03;;;5.23;;
2299;SDS011;1158;48.750;9.078;2023-09-08T14:55:43;6.60;;;5.73;;
2299;SDS011;1158;48.750;9.078;2023-09-08T14:58:14;7.30;;;6.60;;
2299;SDS011;1158;48.750;9.078;2023-09-08T15:00:41;8.13;;;5.80;;
2299;SDS011;1158;48.750;9.078;2023-09-08T15:03:09;5.93;;;5.30;;
2299;SDS011;1158;48.750;9.078;2023-09-08T15:05:36;6.27;;;5.30;;
2299;SDS011;1158;48.750;9.078;2023-09-08T15:08:04;5.83;;;5.23;;
2299;SDS011;1158;48.750;9.078;2023-09-08T15:10:31;6.43;;;5.50;;